sensor_id;sensor_type;location;lat;lon;timestamp;P1;durP1;ratioP1;P2;durP2;ratioP2
53309;SDS011;39197;53.200;5.792;2023-12-28T00:00:18;9.90;;;1.70;;
53309;SDS011;39197;53.200;5.792;2023-12-28T00:02:43;18.45;;;3.00;;
53309;SDS011;39197;53.200;5.792;2023-12-28T00:05:09;10.60;;;2.03;;
53309;SDS011;39197;53.200;5.792;2023-12-28T00:07:34;17.75;;;2.72;;
53309;SDS011;39197;53.200;5.792;2023-12-28T00:10:01;12.05;;;2.55;;
53309;SDS011;39197;53.200;5.792;2023-12-28T00:12:27;15.65;;;2.58;;
53309;SDS011;39197;53.200;5.792;2023-12-28T00:14:53;18.85;;;2.67;;
53309;SDS011;39197;53.200;5.792;2023-12-28T00:17:18;5.88;;;1.67;;
53309;SDS011;39197;53.200;5.792;2023-12-28T00:19:44;21.02;;;3.13;;
53309;SDS011;39197;53.200;5.792;2023-12-28T00:22:10;17.00;;;2.50;;
53309;SDS011;39197;53.200;5.792;2023-12-28T00:24:35;7.10;;;1.77;;
53309;SDS011;39197;53.200;5.792;2023-12-28T00:27:01;16.77;;;2.65;;
53309;SDS011;39197;53.200;5.792;2023-12-28T00:29:26;18.83;;;3.67;;
53309;SDS011;39197;53.200;5.792;2023-12-28T00:31:53;26.10;;;4.53;;
53309;SDS011;39197;53.200;5.792;2023-12-28T00:34:19;27.40;;;3.75;;
53309;SDS011;39197;53.200;5.792;2023-12-28T00:36:44;18.52;;;2.60;;
53309;SDS011;39197;53.200;5.792;2023-12-28T00:39:10;32.42;;;3.92;;
53309;SDS011;39197;53.200;5.792;2023-12-28T00:41:35;21.00;;;2.80;;
53309;SDS011;39197;53.200;5.792;2023-12-28T00:44:01;15.75;;;3.58;;
53309;SDS011;39197;53.200;5.792;2023-12-28T00:46:27;25.83;;;4.53;;
53309;SDS011;39197;53.200;5.792;2023-12-28T00:48:53;11.48;;;1.73;;
53309;SDS011;39197;53.200;5.792;2023-12-28T00:51:19;24.50;;;4.47;;
53309;SDS011;39197;53.200;5.792;2023-12-28T00:53:46;21.85;;;4.30;;
53309;SDS011;39197;53.200;5.792;2023-12-28T00:56:11;22.38;;;3.10;;
53309;SDS011;39197;53.200;5.792;2023-12-28T00:58:40;27.20;;;4.47;;
53309;SDS011;39197;53.200;5.792;2023-12-28T01:01:06;22.20;;;3.00;;
53309;SDS011;39197;53.200;5.792;2023-12-28T01:03:31;21.10;;;3.63;;
53309;SDS011;39197;53.200;5.792;2023-12-28T01:05:57;15.07;;;2.17;;
53309;SDS011;39197;53.200;5.792;2023-12-28T01:08:22;17.77;;;2.58;;
53309;SDS011;39197;53.200;5.792;2023-12-28T01:10:48;17.00;;;2.20;;
53309;SDS011;39197;53.200;5.792;2023-12-28T01:13:13;7.85;;;1.38;;
53309;SDS011;39197;53.200;5.792;2023-12-28T01:15:39;25.10;;;3.92;;
53309;SDS011;39197;53.200;5.792;2023-12-28T01:18:05;10.55;;;2.28;;
53309;SDS011;39197;53.200;5.792;2023-12-28T01:20:30;22.35;;;2.60;;
53309;SDS011;39197;53.200;5.792;2023-12-28T01:22:56;28.90;;;3.92;;
53309;SDS011;39197;53.200;5.792;2023-12-28T01:25:22;29.48;;;3.05;;
53309;SDS011;39197;53.200;5.792;2023-12-28T01:27:48;12.13;;;2.42;;
53309;SDS011;39197;53.200;5.792;2023-12-28T01:30:13;27.65;;;3.78;;
53309;SDS011;39197;53.200;5.792;2023-12-28T01:32:39;26.58;;;3.72;;
53309;SDS011;39197;53.200;5.792;2023-12-28T01:35:05;30.45;;;4.68;;
53309;SDS011;39197;53.200;5.792;2023-12-28T01:37:30;20.02;;;2.85;;
53309;SDS011;39197;53.200;5.792;2023-12-28T01:39:58;21.63;;;3.50;;
53309;SDS011;39197;53.200;5.792;2023-12-28T01:42:25;14.32;;;2.80;;
53309;SDS011;39197;53.200;5.792;2023-12-28T01:44:50;35.28;;;4.63;;
53309;SDS011;39197;53.200;5.792;2023-12-28T01:47:16;23.00;;;3.10;;
53309;SDS011;39197;53.200;5.792;2023-12-28T01:49:42;32.85;;;3.85;;
53309;SDS011;39197;53.200;5.792;2023-12-28T01:52:08;28.17;;;4.50;;
53309;SDS011;39197;53.200;5.792;2023-12-28T01:54:34;23.70;;;3.20;;
53309;SDS011;39197;53.200;5.792;2023-12-28T01:57:02;16.70;;;2.75;;
53309;SDS011;39197;53.200;5.792;2023-12-28T01:59:30;22.60;;;3.80;;
53309;SDS011;39197;53.200;5.792;2023-12-28T02:01:56;17.30;;;2.65;;
53309;SDS011;39197;53.200;5.792;2023-12-28T02:04:23;28.63;;;3.78;;
53309;SDS011;39197;53.200;5.792;2023-12-28T02:06:56;31.92;;;5.72;;
53309;SDS011;39197;53.200;5.792;2023-12-28T02:09:23;21.80;;;3.45;;
53309;SDS011;39197;53.200;5.792;2023-12-28T02:11:48;18.70;;;3.55;;
53309;SDS011;39197;53.200;5.792;2023-12-28T02:14:14;27.80;;;4.75;;
53309;SDS011;39197;53.200;5.792;2023-12-28T02:16:44;22.45;;;2.92;;
53309;SDS011;39197;53.200;5.792;2023-12-28T02:19:19;20.42;;;2.92;;
53309;SDS011;39197;53.200;5.792;2023-12-28T02:21:59;19.02;;;3.45;;
53309;SDS011;39197;53.200;5.792;2023-12-28T02:24:25;14.18;;;2.67;;
53309;SDS011;39197;53.200;5.792;2023-12-28T02:26:52;15.20;;;2.30;;
53309;SDS011;39197;53.200;5.792;2023-12-28T02:29:18;21.50;;;2.28;;
53309;SDS011;39197;53.200;5.792;2023-12-28T02:31:50;20.08;;;3.10;;
53309;SDS011;39197;53.200;5.792;2023-12-28T02:34:27;24.25;;;3.88;;
53309;SDS011;39197;53.200;5.792;2023-12-28T02:36:59;27.60;;;3.92;;
53309;SDS011;39197;53.200;5.792;2023-12-28T02:39:26;11.55;;;1.63;;
53309;SDS011;39197;53.200;5.792;2023-12-28T02:41:54;11.90;;;2.65;;
53309;SDS011;39197;53.200;5.792;2023-12-28T02:44:20;18.27;;;3.38;;
53309;SDS011;39197;53.200;5.792;2023-12-28T02:46:46;20.55;;;2.45;;
53309;SDS011;39197;53.200;5.792;2023-12-28T02:49:12;13.27;;;2.00;;
53309;SDS011;39197;53.200;5.792;2023-12-28T02:51:38;11.65;;;1.95;;
53309;SDS011;39197;53.200;5.792;2023-12-28T02:54:03;19.45;;;3.38;;
53309;SDS011;39197;53.200;5.792;2023-12-28T02:56:29;21.27;;;2.17;;
53309;SDS011;39197;53.200;5.792;2023-12-28T02:58:57;26.05;;;3.42;;
53309;SDS011;39197;53.200;5.792;2023-12-28T03:01:22;15.52;;;2.95;;
53309;SDS011;39197;53.200;5.792;2023-12-28T03:03:48;7.93;;;1.25;;
53309;SDS011;39197;53.200;5.792;2023-12-28T03:06:14;13.07;;;1.98;;
53309;SDS011;39197;53.200;5.792;2023-12-28T03:08:39;22.90;;;3.08;;
53309;SDS011;39197;53.200;5.792;2023-12-28T03:11:05;21.90;;;3.22;;
53309;SDS011;39197;53.200;5.792;2023-12-28T03:13:31;13.38;;;2.70;;
53309;SDS011;39197;53.200;5.792;2023-12-28T03:15:57;17.45;;;1.73;;
53309;SDS011;39197;53.200;5.792;2023-12-28T03:18:23;17.30;;;2.33;;
53309;SDS011;39197;53.200;5.792;2023-12-28T03:20:48;20.90;;;3.15;;
53309;SDS011;39197;53.200;5.792;2023-12-28T03:23:14;21.00;;;2.85;;
53309;SDS011;39197;53.200;5.792;2023-12-28T03:25:39;10.63;;;2.03;;
53309;SDS011;39197;53.200;5.792;2023-12-28T03:28:05;13.18;;;1.45;;
53309;SDS011;39197;53.200;5.792;2023-12-28T03:30:31;23.10;;;3.28;;
53309;SDS011;39197;53.200;5.792;2023-12-28T03:32:56;11.30;;;1.85;;
53309;SDS011;39197;53.200;5.792;2023-12-28T03:35:22;13.23;;;2.28;;
53309;SDS011;39197;53.200;5.792;2023-12-28T03:37:47;17.83;;;4.22;;
53309;SDS011;39197;53.200;5.792;2023-12-28T03:40:13;19.90;;;2.33;;
53309;SDS011;39197;53.200;5.792;2023-12-28T03:42:39;14.68;;;2.75;;
53309;SDS011;39197;53.200;5.792;2023-12-28T03:45:04;9.00;;;1.73;;
53309;SDS011;39197;53.200;5.792;2023-12-28T03:47:30;17.50;;;3.08;;
53309;SDS011;39197;53.200;5.792;2023-12-28T03:49:56;20.73;;;3.17;;
53309;SDS011;39197;53.200;5.792;2023-12-28T03:52:22;14.93;;;3.08;;
53309;SDS011;39197;53.200;5.792;2023-12-28T03:54:50;15.35;;;2.03;;
53309;SDS011;39197;53.200;5.792;2023-12-28T03:57:16;10.85;;;1.92;;
53309;SDS011;39197;53.200;5.792;2023-12-28T03:59:41;15.25;;;2.22;;
53309;SDS011;39197;53.200;5.792;2023-12-28T04:02:07;22.55;;;2.35;;
53309;SDS011;39197;53.200;5.792;2023-12-28T04:04:33;8.07;;;1.20;;
53309;SDS011;39197;53.200;5.792;2023-12-28T04:06:58;16.92;;;2.65;;
53309;SDS011;39197;53.200;5.792;2023-12-28T04:09:24;20.92;;;3.10;;
53309;SDS011;39197;53.200;5.792;2023-12-28T04:11:49;18.80;;;2.63;;
53309;SDS011;39197;53.200;5.792;2023-12-28T04:14:15;24.98;;;3.72;;
53309;SDS011;39197;53.200;5.792;2023-12-28T04:16:40;14.02;;;2.63;;
53309;SDS011;39197;53.200;5.792;2023-12-28T04:19:06;21.83;;;2.33;;
53309;SDS011;39197;53.200;5.792;2023-12-28T04:21:31;20.25;;;3.00;;
53309;SDS011;39197;53.200;5.792;2023-12-28T04:23:57;21.52;;;2.63;;
53309;SDS011;39197;53.200;5.792;2023-12-28T04:26:23;29.00;;;4.07;;
53309;SDS011;39197;53.200;5.792;2023-12-28T04:28:48;20.90;;;3.38;;
53309;SDS011;39197;53.200;5.792;2023-12-28T04:31:14;23.33;;;3.33;;
53309;SDS011;39197;53.200;5.792;2023-12-28T04:33:39;18.92;;;2.20;;
53309;SDS011;39197;53.200;5.792;2023-12-28T04:36:05;19.02;;;3.13;;
53309;SDS011;39197;53.200;5.792;2023-12-28T04:38:31;25.30;;;3.85;;
53309;SDS011;39197;53.200;5.792;2023-12-28T04:40:57;24.52;;;3.88;;
53309;SDS011;39197;53.200;5.792;2023-12-28T04:43:23;12.52;;;2.47;;
53309;SDS011;39197;53.200;5.792;2023-12-28T04:45:49;14.35;;;2.35;;
53309;SDS011;39197;53.200;5.792;2023-12-28T04:48:15;15.15;;;2.42;;
53309;SDS011;39197;53.200;5.792;2023-12-28T04:50:45;20.15;;;3.78;;
53309;SDS011;39197;53.200;5.792;2023-12-28T04:53:12;25.05;;;3.50;;
53309;SDS011;39197;53.200;5.792;2023-12-28T04:55:38;21.23;;;3.65;;
53309;SDS011;39197;53.200;5.792;2023-12-28T04:58:03;19.08;;;3.08;;
53309;SDS011;39197;53.200;5.792;2023-12-28T05:00:29;24.92;;;3.22;;
53309;SDS011;39197;53.200;5.792;2023-12-28T05:02:54;21.50;;;3.45;;
53309;SDS011;39197;53.200;5.792;2023-12-28T05:05:20;22.33;;;2.90;;
53309;SDS011;39197;53.200;5.792;2023-12-28T05:07:45;20.30;;;3.80;;
53309;SDS011;39197;53.200;5.792;2023-12-28T05:10:11;20.38;;;3.78;;
53309;SDS011;39197;53.200;5.792;2023-12-28T05:12:37;27.90;;;3.90;;
53309;SDS011;39197;53.200;5.792;2023-12-28T05:15:02;25.15;;;3.28;;
53309;SDS011;39197;53.200;5.792;2023-12-28T05:17:28;24.48;;;3.75;;
53309;SDS011;39197;53.200;5.792;2023-12-28T05:19:54;21.88;;;3.30;;
53309;SDS011;39197;53.200;5.792;2023-12-28T05:22:21;25.15;;;4.80;;
53309;SDS011;39197;53.200;5.792;2023-12-28T05:24:46;22.80;;;3.50;;
53309;SDS011;39197;53.200;5.792;2023-12-28T05:27:12;26.98;;;4.57;;
53309;SDS011;39197;53.200;5.792;2023-12-28T05:29:38;28.60;;;4.95;;
53309;SDS011;39197;53.200;5.792;2023-12-28T05:32:03;28.33;;;3.90;;
53309;SDS011;39197;53.200;5.792;2023-12-28T05:34:30;27.52;;;3.67;;
53309;SDS011;39197;53.200;5.792;2023-12-28T05:36:55;15.55;;;2.47;;
53309;SDS011;39197;53.200;5.792;2023-12-28T05:39:21;30.25;;;5.95;;
53309;SDS011;39197;53.200;5.792;2023-12-28T05:41:46;26.15;;;4.95;;
53309;SDS011;39197;53.200;5.792;2023-12-28T05:44:12;27.92;;;4.65;;
53309;SDS011;39197;53.200;5.792;2023-12-28T05:46:39;25.50;;;3.33;;
53309;SDS011;39197;53.200;5.792;2023-12-28T05:49:04;15.88;;;3.35;;
53309;SDS011;39197;53.200;5.792;2023-12-28T05:51:36;28.25;;;4.13;;
53309;SDS011;39197;53.200;5.792;2023-12-28T05:54:03;16.00;;;2.83;;
53309;SDS011;39197;53.200;5.792;2023-12-28T05:56:29;14.98;;;3.58;;
53309;SDS011;39197;53.200;5.792;2023-12-28T05:58:54;28.02;;;4.10;;
53309;SDS011;39197;53.200;5.792;2023-12-28T06:01:20;33.28;;;5.13;;
53309;SDS011;39197;53.200;5.792;2023-12-28T06:03:46;26.60;;;3.58;;
53309;SDS011;39197;53.200;5.792;2023-12-28T06:06:14;32.15;;;4.38;;
53309;SDS011;39197;53.200;5.792;2023-12-28T06:08:40;28.63;;;3.85;;
53309;SDS011;39197;53.200;5.792;2023-12-28T06:11:05;32.40;;;4.60;;
53309;SDS011;39197;53.200;5.792;2023-12-28T06:13:31;25.10;;;5.20;;
53309;SDS011;39197;53.200;5.792;2023-12-28T06:15:56;21.50;;;3.03;;
53309;SDS011;39197;53.200;5.792;2023-12-28T06:18:22;35.60;;;3.97;;
53309;SDS011;39197;53.200;5.792;2023-12-28T06:20:47;24.70;;;3.67;;
53309;SDS011;39197;53.200;5.792;2023-12-28T06:23:13;16.02;;;3.97;;
53309;SDS011;39197;53.200;5.792;2023-12-28T06:25:38;23.55;;;4.07;;
53309;SDS011;39197;53.200;5.792;2023-12-28T06:28:04;33.05;;;3.60;;
53309;SDS011;39197;53.200;5.792;2023-12-28T06:30:30;20.25;;;4.75;;
53309;SDS011;39197;53.200;5.792;2023-12-28T06:32:55;26.45;;;4.22;;
53309;SDS011;39197;53.200;5.792;2023-12-28T06:35:21;24.50;;;3.60;;
53309;SDS011;39197;53.200;5.792;2023-12-28T06:37:46;34.40;;;4.95;;
53309;SDS011;39197;53.200;5.792;2023-12-28T06:40:12;21.85;;;3.45;;
53309;SDS011;39197;53.200;5.792;2023-12-28T06:42:38;22.02;;;3.83;;
53309;SDS011;39197;53.200;5.792;2023-12-28T06:45:03;17.27;;;3.95;;
53309;SDS011;39197;53.200;5.792;2023-12-28T06:47:29;25.10;;;3.38;;
53309;SDS011;39197;53.200;5.792;2023-12-28T06:49:55;29.70;;;5.53;;
53309;SDS011;39197;53.200;5.792;2023-12-28T06:52:20;21.65;;;3.63;;
53309;SDS011;39197;53.200;5.792;2023-12-28T06:54:46;24.25;;;4.00;;
53309;SDS011;39197;53.200;5.792;2023-12-28T06:57:11;36.33;;;6.07;;
53309;SDS011;39197;53.200;5.792;2023-12-28T06:59:37;30.55;;;4.72;;
53309;SDS011;39197;53.200;5.792;2023-12-28T07:02:03;25.92;;;4.30;;
53309;SDS011;39197;53.200;5.792;2023-12-28T07:04:28;27.92;;;4.60;;
53309;SDS011;39197;53.200;5.792;2023-12-28T07:06:54;34.10;;;5.13;;
53309;SDS011;39197;53.200;5.792;2023-12-28T07:09:20;28.27;;;5.50;;
53309;SDS011;39197;53.200;5.792;2023-12-28T07:11:46;21.45;;;3.63;;
53309;SDS011;39197;53.200;5.792;2023-12-28T07:14:11;24.80;;;4.70;;
53309;SDS011;39197;53.200;5.792;2023-12-28T07:16:37;24.25;;;4.80;;
53309;SDS011;39197;53.200;5.792;2023-12-28T07:19:02;40.58;;;6.18;;
53309;SDS011;39197;53.200;5.792;2023-12-28T07:21:29;34.30;;;5.88;;
53309;SDS011;39197;53.200;5.792;2023-12-28T07:23:54;25.77;;;4.72;;
53309;SDS011;39197;53.200;5.792;2023-12-28T07:26:20;26.55;;;3.55;;
53309;SDS011;39197;53.200;5.792;2023-12-28T07:28:46;31.35;;;4.55;;
53309;SDS011;39197;53.200;5.792;2023-12-28T07:31:23;25.42;;;5.22;;
53309;SDS011;39197;53.200;5.792;2023-12-28T07:33:49;23.50;;;4.55;;
53309;SDS011;39197;53.200;5.792;2023-12-28T07:36:15;31.95;;;5.90;;
53309;SDS011;39197;53.200;5.792;2023-12-28T07:38:40;35.30;;;5.55;;
53309;SDS011;39197;53.200;5.792;2023-12-28T07:41:06;41.88;;;6.22;;
53309;SDS011;39197;53.200;5.792;2023-12-28T07:43:32;16.63;;;2.75;;
53309;SDS011;39197;53.200;5.792;2023-12-28T07:45:57;35.20;;;5.03;;
53309;SDS011;39197;53.200;5.792;2023-12-28T07:48:23;43.35;;;6.78;;
53309;SDS011;39197;53.200;5.792;2023-12-28T07:50:48;36.72;;;6.10;;
53309;SDS011;39197;53.200;5.792;2023-12-28T07:53:16;39.90;;;6.30;;
53309;SDS011;39197;53.200;5.792;2023-12-28T07:55:42;31.80;;;5.53;;
53309;SDS011;39197;53.200;5.792;2023-12-28T07:58:07;29.88;;;5.65;;
53309;SDS011;39197;53.200;5.792;2023-12-28T08:00:33;19.88;;;3.83;;
53309;SDS011;39197;53.200;5.792;2023-12-28T08:02:58;35.17;;;5.60;;
53309;SDS011;39197;53.200;5.792;2023-12-28T08:05:24;34.58;;;6.60;;
53309;SDS011;39197;53.200;5.792;2023-12-28T08:07:50;23.40;;;4.30;;
53309;SDS011;39197;53.200;5.792;2023-12-28T08:10:15;18.38;;;3.80;;
53309;SDS011;39197;53.200;5.792;2023-12-28T08:12:41;33.63;;;6.70;;
53309;SDS011;39197;53.200;5.792;2023-12-28T08:15:08;52.53;;;8.00;;
53309;SDS011;39197;53.200;5.792;2023-12-28T08:17:34;40.63;;;5.60;;
53309;SDS011;39197;53.200;5.792;2023-12-28T08:19:59;39.78;;;5.18;;
53309;SDS011;39197;53.200;5.792;2023-12-28T08:22:25;54.45;;;7.88;;
53309;SDS011;39197;53.200;5.792;2023-12-28T08:24:50;19.48;;;4.65;;
53309;SDS011;39197;53.200;5.792;2023-12-28T08:27:16;43.45;;;7.78;;
53309;SDS011;39197;53.200;5.792;2023-12-28T08:29:41;30.40;;;5.57;;
53309;SDS011;39197;53.200;5.792;2023-12-28T08:32:07;42.28;;;7.78;;
53309;SDS011;39197;53.200;5.792;2023-12-28T08:34:33;44.67;;;6.97;;
53309;SDS011;39197;53.200;5.792;2023-12-28T08:36:58;41.65;;;7.47;;
53309;SDS011;39197;53.200;5.792;2023-12-28T08:39:24;48.83;;;8.65;;
53309;SDS011;39197;53.200;5.792;2023-12-28T08:41:50;39.50;;;6.90;;
53309;SDS011;39197;53.200;5.792;2023-12-28T08:44:15;38.05;;;7.00;;
53309;SDS011;39197;53.200;5.792;2023-12-28T08:46:41;43.22;;;6.40;;
53309;SDS011;39197;53.200;5.792;2023-12-28T08:49:06;40.05;;;6.90;;
53309;SDS011;39197;53.200;5.792;2023-12-28T08:51:32;47.47;;;7.22;;
53309;SDS011;39197;53.200;5.792;2023-12-28T08:53:57;40.67;;;7.20;;
53309;SDS011;39197;53.200;5.792;2023-12-28T08:56:23;39.72;;;7.40;;
53309;SDS011;39197;53.200;5.792;2023-12-28T08:58:49;43.15;;;7.03;;
53309;SDS011;39197;53.200;5.792;2023-12-28T09:01:19;33.35;;;6.65;;
53309;SDS011;39197;53.200;5.792;2023-12-28T09:03:54;31.05;;;5.47;;
53309;SDS011;39197;53.200;5.792;2023-12-28T09:06:20;41.72;;;6.15;;
53309;SDS011;39197;53.200;5.792;2023-12-28T09:08:50;32.45;;;6.70;;
53309;SDS011;39197;53.200;5.792;2023-12-28T09:11:16;36.60;;;5.65;;
53309;SDS011;39197;53.200;5.792;2023-12-28T09:13:43;41.53;;;6.43;;
53309;SDS011;39197;53.200;5.792;2023-12-28T09:16:10;28.08;;;5.90;;
53309;SDS011;39197;53.200;5.792;2023-12-28T09:18:37;32.65;;;6.13;;
53309;SDS011;39197;53.200;5.792;2023-12-28T09:21:04;33.72;;;5.30;;
53309;SDS011;39197;53.200;5.792;2023-12-28T09:23:31;34.90;;;6.65;;
53309;SDS011;39197;53.200;5.792;2023-12-28T09:26:01;39.55;;;6.88;;
53309;SDS011;39197;53.200;5.792;2023-12-28T09:28:31;39.88;;;6.20;;
53309;SDS011;39197;53.200;5.792;2023-12-28T09:30:59;40.78;;;6.10;;
53309;SDS011;39197;53.200;5.792;2023-12-28T09:33:26;52.17;;;7.95;;
53309;SDS011;39197;53.200;5.792;2023-12-28T09:35:51;29.75;;;5.93;;
53309;SDS011;39197;53.200;5.792;2023-12-28T09:38:18;33.40;;;5.63;;
53309;SDS011;39197;53.200;5.792;2023-12-28T09:40:44;32.33;;;6.32;;
53309;SDS011;39197;53.200;5.792;2023-12-28T09:43:15;31.27;;;5.00;;
53309;SDS011;39197;53.200;5.792;2023-12-28T09:45:47;38.30;;;6.38;;
53309;SDS011;39197;53.200;5.792;2023-12-28T09:48:16;26.27;;;4.43;;
53309;SDS011;39197;53.200;5.792;2023-12-28T09:50:48;35.47;;;5.00;;
53309;SDS011;39197;53.200;5.792;2023-12-28T09:53:20;33.90;;;6.22;;
53309;SDS011;39197;53.200;5.792;2023-12-28T09:55:48;33.70;;;4.90;;
53309;SDS011;39197;53.200;5.792;2023-12-28T09:58:14;43.33;;;6.25;;
53309;SDS011;39197;53.200;5.792;2023-12-28T10:00:45;31.42;;;5.25;;
53309;SDS011;39197;53.200;5.792;2023-12-28T10:03:13;31.52;;;5.15;;
53309;SDS011;39197;53.200;5.792;2023-12-28T10:05:42;28.20;;;4.18;;
53309;SDS011;39197;53.200;5.792;2023-12-28T10:08:10;34.80;;;6.03;;
53309;SDS011;39197;53.200;5.792;2023-12-28T10:10:37;20.58;;;3.72;;
53309;SDS011;39197;53.200;5.792;2023-12-28T10:13:03;20.45;;;4.25;;
53309;SDS011;39197;53.200;5.792;2023-12-28T10:15:30;37.80;;;5.55;;
53309;SDS011;39197;53.200;5.792;2023-12-28T10:17:56;24.77;;;3.63;;
53309;SDS011;39197;53.200;5.792;2023-12-28T10:20:21;33.70;;;4.63;;
53309;SDS011;39197;53.200;5.792;2023-12-28T10:22:50;33.55;;;6.60;;
53309;SDS011;39197;53.200;5.792;2023-12-28T10:25:16;20.73;;;3.22;;
53309;SDS011;39197;53.200;5.792;2023-12-28T10:27:42;34.10;;;5.22;;
53309;SDS011;39197;53.200;5.792;2023-12-28T10:30:08;40.80;;;5.45;;
53309;SDS011;39197;53.200;5.792;2023-12-28T10:32:35;33.47;;;6.30;;
53309;SDS011;39197;53.200;5.792;2023-12-28T10:35:01;35.47;;;5.65;;
53309;SDS011;39197;53.200;5.792;2023-12-28T10:37:27;34.97;;;5.43;;
53309;SDS011;39197;53.200;5.792;2023-12-28T10:39:56;23.23;;;3.42;;
53309;SDS011;39197;53.200;5.792;2023-12-28T10:42:28;28.13;;;4.60;;
53309;SDS011;39197;53.200;5.792;2023-12-28T10:45:01;36.22;;;5.10;;
53309;SDS011;39197;53.200;5.792;2023-12-28T10:49:56;22.77;;;3.70;;
53309;SDS011;39197;53.200;5.792;2023-12-28T10:52:26;38.25;;;7.25;;
53309;SDS011;39197;53.200;5.792;2023-12-28T10:55:40;30.48;;;4.32;;
53309;SDS011;39197;53.200;5.792;2023-12-28T10:58:11;29.73;;;3.88;;
53309;SDS011;39197;53.200;5.792;2023-12-28T11:00:47;38.17;;;6.25;;
53309;SDS011;39197;53.200;5.792;2023-12-28T11:03:21;37.72;;;4.70;;
53309;SDS011;39197;53.200;5.792;2023-12-28T11:05:52;28.77;;;4.35;;
53309;SDS011;39197;53.200;5.792;2023-12-28T11:08:18;30.25;;;5.28;;
53309;SDS011;39197;53.200;5.792;2023-12-28T11:10:45;40.92;;;6.93;;
53309;SDS011;39197;53.200;5.792;2023-12-28T11:13:12;32.17;;;5.57;;
53309;SDS011;39197;53.200;5.792;2023-12-28T11:15:40;41.40;;;6.72;;
53309;SDS011;39197;53.200;5.792;2023-12-28T11:18:06;28.73;;;4.30;;
53309;SDS011;39197;53.200;5.792;2023-12-28T11:20:32;29.38;;;5.35;;
53309;SDS011;39197;53.200;5.792;2023-12-28T11:22:59;34.20;;;6.88;;
53309;SDS011;39197;53.200;5.792;2023-12-28T11:25:25;28.20;;;4.82;;
53309;SDS011;39197;53.200;5.792;2023-12-28T11:27:56;35.70;;;6.73;;
53309;SDS011;39197;53.200;5.792;2023-12-28T11:30:22;33.72;;;5.22;;
53309;SDS011;39197;53.200;5.792;2023-12-28T11:32:51;36.45;;;6.70;;
53309;SDS011;39197;53.200;5.792;2023-12-28T11:35:23;30.13;;;5.40;;
53309;SDS011;39197;53.200;5.792;2023-12-28T11:37:48;33.30;;;5.88;;
53309;SDS011;39197;53.200;5.792;2023-12-28T11:40:18;17.55;;;4.03;;
53309;SDS011;39197;53.200;5.792;2023-12-28T11:42:49;16.33;;;4.00;;
53309;SDS011;39197;53.200;5.792;2023-12-28T11:45:19;34.13;;;4.78;;
53309;SDS011;39197;53.200;5.792;2023-12-28T11:47:46;37.03;;;5.90;;
53309;SDS011;39197;53.200;5.792;2023-12-28T11:50:12;38.35;;;6.38;;
53309;SDS011;39197;53.200;5.792;2023-12-28T11:52:39;36.10;;;5.63;;
53309;SDS011;39197;53.200;5.792;2023-12-28T11:55:04;35.80;;;6.47;;
53309;SDS011;39197;53.200;5.792;2023-12-28T11:57:30;33.33;;;5.97;;
53309;SDS011;39197;53.200;5.792;2023-12-28T12:00:02;26.48;;;4.80;;
53309;SDS011;39197;53.200;5.792;2023-12-28T12:02:29;39.90;;;6.10;;
53309;SDS011;39197;53.200;5.792;2023-12-28T12:04:54;19.02;;;4.40;;
53309;SDS011;39197;53.200;5.792;2023-12-28T12:07:23;31.63;;;5.30;;
53309;SDS011;39197;53.200;5.792;2023-12-28T12:09:49;29.23;;;4.70;;
53309;SDS011;39197;53.200;5.792;2023-12-28T12:12:20;42.80;;;6.95;;
53309;SDS011;39197;53.200;5.792;2023-12-28T12:14:46;35.83;;;5.72;;
53309;SDS011;39197;53.200;5.792;2023-12-28T12:17:12;33.70;;;5.43;;
53309;SDS011;39197;53.200;5.792;2023-12-28T12:19:37;28.00;;;5.93;;
53309;SDS011;39197;53.200;5.792;2023-12-28T12:22:03;40.25;;;5.38;;
53309;SDS011;39197;53.200;5.792;2023-12-28T12:24:28;33.65;;;5.07;;
53309;SDS011;39197;53.200;5.792;2023-12-28T12:26:56;43.22;;;5.90;;
53309;SDS011;39197;53.200;5.792;2023-12-28T12:29:22;27.40;;;4.65;;
53309;SDS011;39197;53.200;5.792;2023-12-28T12:31:48;34.25;;;6.30;;
53309;SDS011;39197;53.200;5.792;2023-12-28T12:34:15;26.38;;;4.82;;
53309;SDS011;39197;53.200;5.792;2023-12-28T12:36:41;27.02;;;4.50;;
53309;SDS011;39197;53.200;5.792;2023-12-28T12:39:09;22.52;;;4.07;;
53309;SDS011;39197;53.200;5.792;2023-12-28T12:41:36;32.78;;;5.93;;
53309;SDS011;39197;53.200;5.792;2023-12-28T12:44:05;30.80;;;6.20;;
53309;SDS011;39197;53.200;5.792;2023-12-28T12:46:32;42.63;;;6.18;;
53309;SDS011;39197;53.200;5.792;2023-12-28T12:48:58;23.58;;;3.78;;
53309;SDS011;39197;53.200;5.792;2023-12-28T12:51:26;29.55;;;4.82;;
53309;SDS011;39197;53.200;5.792;2023-12-28T12:54:02;33.38;;;4.93;;
53309;SDS011;39197;53.200;5.792;2023-12-28T12:56:31;28.83;;;4.63;;
53309;SDS011;39197;53.200;5.792;2023-12-28T12:58:57;26.77;;;4.57;;
53309;SDS011;39197;53.200;5.792;2023-12-28T13:01:23;28.15;;;5.38;;
53309;SDS011;39197;53.200;5.792;2023-12-28T13:03:49;28.27;;;4.28;;
53309;SDS011;39197;53.200;5.792;2023-12-28T13:06:16;35.97;;;7.05;;
53309;SDS011;39197;53.200;5.792;2023-12-28T13:08:42;33.90;;;5.53;;
53309;SDS011;39197;53.200;5.792;2023-12-28T13:11:07;33.28;;;4.85;;
53309;SDS011;39197;53.200;5.792;2023-12-28T13:13:33;34.95;;;4.82;;
53309;SDS011;39197;53.200;5.792;2023-12-28T13:16:00;26.10;;;4.22;;
53309;SDS011;39197;53.200;5.792;2023-12-28T13:18:26;36.72;;;5.70;;
53309;SDS011;39197;53.200;5.792;2023-12-28T13:20:51;29.83;;;5.32;;
53309;SDS011;39197;53.200;5.792;2023-12-28T13:23:17;18.35;;;3.70;;
53309;SDS011;39197;53.200;5.792;2023-12-28T13:25:42;28.40;;;5.13;;
53309;SDS011;39197;53.200;5.792;2023-12-28T13:28:09;21.38;;;3.95;;
53309;SDS011;39197;53.200;5.792;2023-12-28T13:30:35;18.75;;;3.35;;
53309;SDS011;39197;53.200;5.792;2023-12-28T13:33:02;26.67;;;3.92;;
53309;SDS011;39197;53.200;5.792;2023-12-28T13:35:28;24.35;;;3.83;;
53309;SDS011;39197;53.200;5.792;2023-12-28T13:37:54;33.85;;;4.78;;
53309;SDS011;39197;53.200;5.792;2023-12-28T13:40:20;29.02;;;4.55;;
53309;SDS011;39197;53.200;5.792;2023-12-28T13:42:45;32.28;;;5.15;;
53309;SDS011;39197;53.200;5.792;2023-12-28T13:45:11;34.33;;;5.18;;
53309;SDS011;39197;53.200;5.792;2023-12-28T13:47:37;39.50;;;6.95;;
53309;SDS011;39197;53.200;5.792;2023-12-28T13:50:03;36.22;;;5.55;;
53309;SDS011;39197;53.200;5.792;2023-12-28T13:52:29;32.42;;;5.45;;
53309;SDS011;39197;53.200;5.792;2023-12-28T13:54:55;34.78;;;4.80;;
53309;SDS011;39197;53.200;5.792;2023-12-28T13:57:20;33.22;;;5.28;;
53309;SDS011;39197;53.200;5.792;2023-12-28T13:59:46;20.42;;;2.83;;
53309;SDS011;39197;53.200;5.792;2023-12-28T14:02:12;33.47;;;5.40;;
53309;SDS011;39197;53.200;5.792;2023-12-28T14:04:37;22.15;;;4.10;;
53309;SDS011;39197;53.200;5.792;2023-12-28T14:07:03;23.35;;;4.00;;
53309;SDS011;39197;53.200;5.792;2023-12-28T14:09:28;22.70;;;4.40;;
53309;SDS011;39197;53.200;5.792;2023-12-28T14:11:55;25.67;;;4.18;;
53309;SDS011;39197;53.200;5.792;2023-12-28T14:14:21;20.40;;;3.63;;
53309;SDS011;39197;53.200;5.792;2023-12-28T14:16:46;25.33;;;3.90;;
53309;SDS011;39197;53.200;5.792;2023-12-28T14:19:12;27.52;;;4.82;;
53309;SDS011;39197;53.200;5.792;2023-12-28T14:21:38;19.83;;;2.90;;
53309;SDS011;39197;53.200;5.792;2023-12-28T14:24:04;29.27;;;6.07;;
53309;SDS011;39197;53.200;5.792;2023-12-28T14:26:31;20.17;;;2.85;;
53309;SDS011;39197;53.200;5.792;2023-12-28T14:28:58;24.80;;;3.92;;
53309;SDS011;39197;53.200;5.792;2023-12-28T14:31:27;25.13;;;4.10;;
53309;SDS011;39197;53.200;5.792;2023-12-28T14:33:53;30.00;;;3.75;;